Dallas, West Virginia
Current Conditions -  °F | °C
As of 12:53 AM on Sunday 26 Oct 2014 (Local Time) from KHLG Reporting Station
Clear Clear  
Wind Chill: 57°   Ceiling: Unl
Heat Index: 57°   Visibility: 10mi
Dew Point: 32°   Wind: 13mph
Humidity: 39%   Direction: 290°WNW
Pressure: 29.82"   Gusts: 23mph
Location:  40.02°N, 80.53°W
Report Text: KHLG 260453Z AUTO 29011G20KT 10SM CLR 14/00 A2982 RMK AO2 SLP097 T01390000 401890072
Loading
Personal Weather Stations






























Interactive Weather Map
Tropical Storm Tracking
New forecast layout! Learn more

10-Day Weather Forecast

Advertisements
Track Severe Weather on mobile